International Virtual Aviation Organisation

Russian Federation and Kazakhstan MCD

 
UASP 250400Z 04003MPS 8000 -SN OVC025 M06/M08 Q1037 R03/410360 NOSIG RMK QFE767/1023
QNH:(hPa/inHg/mmHg)1037 / 30.62 / 778
QFE:(hPa/inHg/mmHg)1022 / 30.17 / 766
Temperature-6
Dew Point-8
Visibility8000
WeatherLight Snow
Cloud CoverOVC (2500);
Transition Height10000 m./33300 ft.
Transition LevelFL340
SQUAWK